Coral Favia — PHKM — position and weather

sailwx.info

Track history (hours):
 
Tides and Currents Weather Stations Pressure Air Temp Water Temp Dewpoint Dewpoint Depression Visibility Wind Speed Wind Dir Waves Ship Positions

Coral Favia

Last reported at 2015-Jul-05 03:31 UTC. Time now 2015-Jul-05 04:26 UTC.
Position N 37°57' W 008°53'.

Length 100 m; beam 17 m.

Type: Tanker. MMSI: 244627000.

Date/timePositionNaut miles runAvg speedWind from/ knotsBaromVisibWave heightAir tempDewpointWater temp
2015-Jul-05 03:31N 37°57' W 008°53'3 2.6
2015-Jul-05 02:33N 37°55' W 008°54'9 9.3
2015-Jul-05 01:33N 37°59' W 009°04'1110.9
2015-Jul-05 00:33N 38°05' W 009°15'1313.5
2015-Jul-04 23:33N 38°12' W 009°30'1413.9
2015-Jul-04 22:33N 38°19' W 009°45'1313.3
2015-Jul-04 21:33N 38°27' W 009°59'1312.5
2015-Jul-04 20:33N 38°36' W 010°10'1313.1
2015-Jul-04 19:33N 38°49' W 010°12'1414.1
2015-Jul-04 18:33N 39°03' W 010°12'1413.8
2015-Jul-04 17:32N 39°17' W 010°11'  
2015-Jul-01 13:31N 39°20' W 009°57'1313.8
2015-Jul-01 12:33N 39°06' W 009°57'1414.1
2015-Jul-01 11:33N 38°52' W 009°57'1414.2
2015-Jul-01 10:33N 38°38' W 009°55'1313.3
2015-Jul-01 09:33N 38°28' W 009°44'1413.7
2015-Jul-01 08:33N 38°19' W 009°31'1413.6
2015-Jul-01 07:33N 38°11' W 009°17'1413.9
2015-Jul-01 06:33N 38°01' W 009°04'10 9.8
2015-Jul-01 05:33N 37°56' W 008°53'1 0.6
2015-Jul-01 04:33N 37°57' W 008°53'0 0.0
2015-Jul-01 03:33N 37°57' W 008°53'0 0.0
2015-Jul-01 02:33N 37°57' W 008°53'0 0.0
2015-Jul-01 01:33N 37°57' W 008°53'0 0.0
2015-Jul-01 00:33N 37°57' W 008°53'0 0.0
2015-Jun-30 23:31N 37°57' W 008°53'0 0.0
2015-Jun-30 22:31N 37°57' W 008°53'0 0.0
2015-Jun-30 21:31N 37°57' W 008°53'0 0.0
2015-Jun-30 20:31N 37°57' W 008°53'0 0.0
2015-Jun-30 19:31N 37°57' W 008°53'0 0.0
2015-Jun-30 18:31N 37°57' W 008°53'0 0.0
2015-Jun-30 17:28N 37°57' W 008°53'0 0.0
2015-Jun-30 16:31N 37°57' W 008°53'0 0.0
2015-Jun-30 15:31N 37°57' W 008°53'0 0.0
2015-Jun-30 14:31N 37°57' W 008°53'0 0.0
2015-Jun-30 13:31N 37°57' W 008°53'0 0.0
2015-Jun-30 12:31N 37°57' W 008°53'0 0.0
2015-Jun-30 11:31N 37°57' W 008°53'0 0.0
2015-Jun-30 10:31N 37°57' W 008°53'0 0.0
2015-Jun-30 09:31N 37°57' W 008°53'0 0.0
2015-Jun-30 08:31N 37°57' W 008°53'0 0.0
2015-Jun-30 07:31N 37°57' W 008°53'0 0.0
2015-Jun-30 06:31N 37°57' W 008°53'0 0.0
2015-Jun-30 05:31N 37°57' W 008°53'0 0.0
2015-Jun-30 04:31N 37°57' W 008°53'0 0.0
2015-Jun-30 03:31N 37°57' W 008°53'0 0.0
2015-Jun-30 02:31N 37°57' W 008°53'0 0.0
2015-Jun-30 01:31N 37°57' W 008°53'0 0.0
2015-Jun-30 00:31N 37°57' W 008°53'0 0.0
2015-Jun-29 23:31N 37°57' W 008°53'0 0.0
2015-Jun-29 22:31N 37°57' W 008°53'0 0.0
2015-Jun-29 21:31N 37°57' W 008°53'0 0.0
2015-Jun-29 20:31N 37°57' W 008°53'0 0.0
2015-Jun-29 19:31N 37°57' W 008°53'0 0.0
2015-Jun-29 18:31N 37°57' W 008°53'0 0.0
2015-Jun-29 17:31N 37°57' W 008°53'0 0.0
2015-Jun-29 16:31N 37°57' W 008°53'0 0.0
2015-Jun-29 15:31N 37°57' W 008°53'0 0.0
2015-Jun-29 14:31N 37°57' W 008°53'0 0.0
2015-Jun-29 13:31N 37°57' W 008°53'0 0.0
2015-Jun-29 12:28N 37°57' W 008°53'0 0.0
2015-Jun-29 11:31N 37°57' W 008°53'0 0.0
2015-Jun-29 10:31N 37°57' W 008°53'0 0.0
2015-Jun-29 09:31N 37°57' W 008°53'0 0.0
2015-Jun-29 08:31N 37°57' W 008°53'0 0.0
2015-Jun-29 07:31N 37°57' W 008°53'0 0.0
2015-Jun-29 06:28N 37°57' W 008°53'0 0.0
2015-Jun-29 05:28N 37°57' W 008°53'0 0.0
2015-Jun-29 04:31N 37°57' W 008°53'0 0.0
2015-Jun-29 03:31N 37°57' W 008°53'0 0.0
2015-Jun-29 02:31N 37°57' W 008°53'0 0.0
2015-Jun-29 01:31N 37°57' W 008°53'1 1.3
2015-Jun-29 00:33N 37°56' W 008°53'3 2.6
2015-Jun-28 23:33N 37°54' W 008°55'2 2.1
2015-Jun-28 22:33N 37°55' W 008°57'1110.5
2015-Jun-28 21:33N 38°01' W 009°08'1313.2
2015-Jun-28 20:33N 38°09' W 009°22'1313.2
2015-Jun-28 19:33N 38°15' W 009°36'1313.4
2015-Jun-28 18:33N 38°22' W 009°51'1312.6
2015-Jun-28 17:33N 38°29' W 010°04'1312.7
2015-Jun-28 16:33N 38°40' W 010°11'1313.5
2015-Jun-28 15:33N 38°54' W 010°12'1413.9
2015-Jun-28 14:34N 39°08' W 010°12'1413.7
2015-Jun-28 13:33N 39°21' W 010°11'1413.7
2015-Jun-28 12:33N 39°35' W 010°12'1413.6
2015-Jun-28 11:31N 39°49' W 010°12'1313.6
2015-Jun-28 10:33N 40°02' W 010°12'1813.5
2015-Jun-28 09:14N 40°20' W 010°12'1113.5
2015-Jun-28 08:27N 40°31' W 010°12'2713.7
2015-Jun-28 06:27N 40°58' W 010°12'248 4.8
2015-Jun-26 03:21N 43°46' W 006°06'1314.0
2015-Jun-26 02:27N 43°46' W 005°48'1313.9
2015-Jun-26 01:32N 43°44' W 005°31'1313.7
2015-Jun-26 00:32N 43°43' W 005°12'5513.8
2015-Jun-25 20:33N 43°37' W 003°57'1614.3
2015-Jun-25 19:24N 43°36' W 003°34'1214.4
2015-Jun-25 18:33N 43°31' W 003°18'1312.6
2015-Jun-25 17:31N 43°22' W 003°05'  
Track history (hours):
 
Tides and Currents Weather Stations Pressure Air Temp Water Temp Dewpoint Dewpoint Depression Visibility Wind Speed Wind Dir Waves Ship Positions

Coral Favia

Last reported at 2015-Jul-05 03:31 UTC. Time now 2015-Jul-05 04:26 UTC.
Position N 37°57' W 008°53'.

Length 100 m; beam 17 m.

Type: Tanker. MMSI: 244627000.

Date/timePositionNaut miles runAvg speedWind from/ knotsBaromVisibWave heightAir tempDewpointWater temp
2015-Jul-05 03:31N 37°57' W 008°53'3 2.6
2015-Jul-05 02:33N 37°55' W 008°54'9 9.3
2015-Jul-05 01:33N 37°59' W 009°04'1110.9
2015-Jul-05 00:33N 38°05' W 009°15'1313.5
2015-Jul-04 23:33N 38°12' W 009°30'1413.9
2015-Jul-04 22:33N 38°19' W 009°45'1313.3
2015-Jul-04 21:33N 38°27' W 009°59'1312.5
2015-Jul-04 20:33N 38°36' W 010°10'1313.1
2015-Jul-04 19:33N 38°49' W 010°12'1414.1
2015-Jul-04 18:33N 39°03' W 010°12'1413.8
2015-Jul-04 17:32N 39°17' W 010°11'  
2015-Jul-01 13:31N 39°20' W 009°57'1313.8
2015-Jul-01 12:33N 39°06' W 009°57'1414.1
2015-Jul-01 11:33N 38°52' W 009°57'1414.2
2015-Jul-01 10:33N 38°38' W 009°55'1313.3
2015-Jul-01 09:33N 38°28' W 009°44'1413.7
2015-Jul-01 08:33N 38°19' W 009°31'1413.6
2015-Jul-01 07:33N 38°11' W 009°17'1413.9
2015-Jul-01 06:33N 38°01' W 009°04'10 9.8
2015-Jul-01 05:33N 37°56' W 008°53'1 0.6
2015-Jul-01 04:33N 37°57' W 008°53'0 0.0
2015-Jul-01 03:33N 37°57' W 008°53'0 0.0
2015-Jul-01 02:33N 37°57' W 008°53'0 0.0
2015-Jul-01 01:33N 37°57' W 008°53'0 0.0
2015-Jul-01 00:33N 37°57' W 008°53'0 0.0
2015-Jun-30 23:31N 37°57' W 008°53'0 0.0
2015-Jun-30 22:31N 37°57' W 008°53'0 0.0
2015-Jun-30 21:31N 37°57' W 008°53'0 0.0
2015-Jun-30 20:31N 37°57' W 008°53'0 0.0
2015-Jun-30 19:31N 37°57' W 008°53'0 0.0
2015-Jun-30 18:31N 37°57' W 008°53'0 0.0
2015-Jun-30 17:28N 37°57' W 008°53'0 0.0
2015-Jun-30 16:31N 37°57' W 008°53'0 0.0
2015-Jun-30 15:31N 37°57' W 008°53'0 0.0
2015-Jun-30 14:31N 37°57' W 008°53'0 0.0
2015-Jun-30 13:31N 37°57' W 008°53'0 0.0
2015-Jun-30 12:31N 37°57' W 008°53'0 0.0
2015-Jun-30 11:31N 37°57' W 008°53'0 0.0
2015-Jun-30 10:31N 37°57' W 008°53'0 0.0
2015-Jun-30 09:31N 37°57' W 008°53'0 0.0
2015-Jun-30 08:31N 37°57' W 008°53'0 0.0
2015-Jun-30 07:31N 37°57' W 008°53'0 0.0
2015-Jun-30 06:31N 37°57' W 008°53'0 0.0
2015-Jun-30 05:31N 37°57' W 008°53'0 0.0
2015-Jun-30 04:31N 37°57' W 008°53'0 0.0
2015-Jun-30 03:31N 37°57' W 008°53'0 0.0
2015-Jun-30 02:31N 37°57' W 008°53'0 0.0
2015-Jun-30 01:31N 37°57' W 008°53'0 0.0
2015-Jun-30 00:31N 37°57' W 008°53'0 0.0
2015-Jun-29 23:31N 37°57' W 008°53'0 0.0
2015-Jun-29 22:31N 37°57' W 008°53'0 0.0
2015-Jun-29 21:31N 37°57' W 008°53'0 0.0
2015-Jun-29 20:31N 37°57' W 008°53'0 0.0
2015-Jun-29 19:31N 37°57' W 008°53'0 0.0
2015-Jun-29 18:31N 37°57' W 008°53'0 0.0
2015-Jun-29 17:31N 37°57' W 008°53'0 0.0
2015-Jun-29 16:31N 37°57' W 008°53'0 0.0
2015-Jun-29 15:31N 37°57' W 008°53'0 0.0
2015-Jun-29 14:31N 37°57' W 008°53'0 0.0
2015-Jun-29 13:31N 37°57' W 008°53'0 0.0
2015-Jun-29 12:28N 37°57' W 008°53'0 0.0
2015-Jun-29 11:31N 37°57' W 008°53'0 0.0
2015-Jun-29 10:31N 37°57' W 008°53'0 0.0
2015-Jun-29 09:31N 37°57' W 008°53'0 0.0
2015-Jun-29 08:31N 37°57' W 008°53'0 0.0
2015-Jun-29 07:31N 37°57' W 008°53'0 0.0
2015-Jun-29 06:28N 37°57' W 008°53'0 0.0
2015-Jun-29 05:28N 37°57' W 008°53'0 0.0
2015-Jun-29 04:31N 37°57' W 008°53'0 0.0
2015-Jun-29 03:31N 37°57' W 008°53'0 0.0
2015-Jun-29 02:31N 37°57' W 008°53'0 0.0
2015-Jun-29 01:31N 37°57' W 008°53'1 1.3
2015-Jun-29 00:33N 37°56' W 008°53'3 2.6
2015-Jun-28 23:33N 37°54' W 008°55'2 2.1
2015-Jun-28 22:33N 37°55' W 008°57'1110.5
2015-Jun-28 21:33N 38°01' W 009°08'1313.2
2015-Jun-28 20:33N 38°09' W 009°22'1313.2
2015-Jun-28 19:33N 38°15' W 009°36'1313.4
2015-Jun-28 18:33N 38°22' W 009°51'1312.6
2015-Jun-28 17:33N 38°29' W 010°04'1312.7
2015-Jun-28 16:33N 38°40' W 010°11'1313.5
2015-Jun-28 15:33N 38°54' W 010°12'1413.9
2015-Jun-28 14:34N 39°08' W 010°12'1413.7
2015-Jun-28 13:33N 39°21' W 010°11'1413.7
2015-Jun-28 12:33N 39°35' W 010°12'1413.6
2015-Jun-28 11:31N 39°49' W 010°12'1313.6
2015-Jun-28 10:33N 40°02' W 010°12'1813.5
2015-Jun-28 09:14N 40°20' W 010°12'1113.5
2015-Jun-28 08:27N 40°31' W 010°12'2713.7
2015-Jun-28 06:27N 40°58' W 010°12'248 4.8
2015-Jun-26 03:21N 43°46' W 006°06'1314.0
2015-Jun-26 02:27N 43°46' W 005°48'1313.9
2015-Jun-26 01:32N 43°44' W 005°31'1313.7
2015-Jun-26 00:32N 43°43' W 005°12'5513.8
2015-Jun-25 20:33N 43°37' W 003°57'1614.3
2015-Jun-25 19:24N 43°36' W 003°34'1214.4
2015-Jun-25 18:33N 43°31' W 003°18'1312.6
2015-Jun-25 17:31N 43°22' W 003°05'  

Dump ship's entire track history